Aérodrome :
LOGIN :

S'inscrire | Disclaimer

   EN    FR    IT 

 










Légende :    VFR   VFR Marginal   IFR   IFR Intensif   IFR Très Intensif
Visi : 
Plafond : 
>= 8 km
>= 3000ft
5 à 8 km
1000 à 3000 ft
1500m à 5 km
500 à 1000 ft
800 à 1500m
200 à 500 ft
< 800m
< 200 ft
Symboles :   Orages  Brouillard  Fortes neiges  Fortes précipitations  Vent > 20 kt
SIGMETs :   Divers  Orages  Givrage  Turbulence  Onde Orograph.  Cendres Volcan.







- Altitude de l'aérodrome : 1106 ft
- Voir les cartes d'approche


LFSO - Nancy / Ochey

DERNIER METAR :
  • 131630Z AUTO 20018KT 9999 -RA OVC009/// ///TCU 03/02 Q1004 BECMG 26020G45KT 4500 RA BKN010 OVC015

METARs EXPIRÉS :
  • 131600Z AUTO 20018KT 9999 -RA OVC009/// ///TCU 03/02 Q1004 TEMPO 1000 -SN BECMG 19015G35KT OVC007
  • 131530Z AUTO 20017KT 9999 -RA OVC009/// ///TCU 02/01 Q1005 TEMPO 1000 -SN BECMG 19015G35KT OVC007
  • 131500Z AUTO 20018KT 9999 -RA OVC009/// ///TCU 02/01 Q1005 TEMPO 1000 -SN BKN005 OVC008 BECMG 19015G35KT
  • 131430Z AUTO 20020KT 9999 -RA OVC009/// ///TCU 02/02 Q1005 TEMPO 1000 -SN BKN005 OVC008 BECMG 19015G35KT
  • 131400Z AUTO 19020KT 7000 -RA BKN009 OVC013 02/01 Q1005 TEMPO 1000 -SN BECMG 19015G30KT

TAF TAF LFSO
Valide du 13 à 15h jusqu'au 14 à 15h UTC


131400Z 1315/1415 19015G35KT 6000 RADZ OVC007
PROB30 1315/1317 1000 -SN BKN005 OVC008
BECMG 1316/1317 NSW
BECMG 1318/1320 26020G45KT 4500 RA BKN010 OVC015
BECMG 1323/1401 CAVOK
TEMPO 1402/1405 26025G50KT 0800 TSGRRA FG BKN015CB
BECMG 1407/1409 22015G30KT
PROB40
TEMPO 1409/1415 4500 -SHRA BKN014TCU
Pas de NOTAMs connus pour ce terrain.
2 SIGMETs publiés pour la FIR Reims (LFEE) :
 
Turbulence forte
LFEE SIGMET 2 VALID 131700/132000 LFPW
LFEE REIMS FIR/UIR SEV TURB FCST WI N4900 E00630 - N4900 E00730 - N4715 E00700 - N4715 E00515 - N4900 E00630 SFC/FL060 STNR NC=
Turbulence forte
LFEE SIGMET 1 VALID 131330/131700 LFPW
LFEE REIMS FIR/UIR SEV TURB FCST WI N4900 E00600 - N4900 E00730 - N4730 E00700 - N4715 E00515 - N4900 E00600 SFC/FL060 STNR NC=



MET'MAP, la Météo Aéronautique d'un coup d'oeil ! - Copyright ORBIFLY Décembre 2007 - Disclaimer

ORBIFLY MET'MAP TEAM :

Programmation & Développement : Alexandra Zaïnal
Conception & Développement : Baudouin d'Aumeries
Co-Programmation & Développement : Marc-Olivier Méhu
Soutien technique & logistique : Manuel Goepfert

Contact : metmap@orbifly.com




SOURCES & CREDITS :

   NOAA